createdAt,value
2022-09-21T00:02:37.833Z,10.70
2022-09-21T00:05:39.649Z,10.84
2022-09-21T00:08:41.801Z,11.30
2022-09-21T00:11:43.642Z,11.76
2022-09-21T00:14:45.418Z,12.76
2022-09-21T00:17:50.027Z,11.54
2022-09-21T00:20:54.645Z,11.96
2022-09-21T00:23:56.649Z,11.49
2022-09-21T00:26:58.436Z,11.48
2022-09-21T00:30:02.608Z,11.30
2022-09-21T00:33:04.535Z,12.12
2022-09-21T00:36:07.293Z,11.82
2022-09-21T00:39:09.531Z,12.19
2022-09-21T00:42:14.820Z,11.69
2022-09-21T00:45:21.238Z,11.94
2022-09-21T00:48:23.186Z,11.89
2022-09-21T00:51:24.962Z,11.36
2022-09-21T00:54:28.162Z,11.47
2022-09-21T00:57:31.207Z,12.01
2022-09-21T01:00:33.001Z,11.42
2022-09-21T01:03:34.819Z,11.28
2022-09-21T01:06:36.972Z,11.99
2022-09-21T01:09:39.384Z,11.50
2022-09-21T01:12:41.177Z,11.49
2022-09-21T01:15:58.484Z,11.71
2022-09-21T01:19:10.785Z,11.41
2022-09-21T01:22:24.626Z,11.73
2022-09-21T01:25:45.037Z,12.13
2022-09-21T01:28:56.123Z,11.10
2022-09-21T01:32:08.774Z,11.70
2022-09-21T01:35:20.946Z,11.83
2022-09-21T01:38:27.239Z,11.24
2022-09-21T01:41:29.215Z,10.90
2022-09-21T01:44:33.472Z,11.56
2022-09-21T01:47:35.877Z,11.28
2022-09-21T01:50:38.718Z,11.67
2022-09-21T01:53:53.255Z,12.27
2022-09-21T01:56:55.970Z,12.70
2022-09-21T01:59:58.150Z,12.52
2022-09-21T02:03:03.829Z,12.36
2022-09-21T02:06:06.040Z,12.16
2022-09-21T02:09:08.266Z,11.88
2022-09-21T02:12:10.658Z,11.30
2022-09-21T02:15:12.448Z,11.69
2022-09-21T02:18:40.372Z,11.62
2022-09-21T02:22:20.975Z,11.89
2022-09-21T02:25:26.861Z,11.35
2022-09-21T02:28:38.245Z,11.71
2022-09-21T02:32:06.553Z,11.92
2022-09-21T02:35:11.289Z,11.37
2022-09-21T02:38:22.421Z,11.97
2022-09-21T02:41:50.482Z,10.95
2022-09-21T02:45:10.920Z,11.42
2022-09-21T02:48:13.824Z,10.61
2022-09-21T02:51:21.140Z,10.81
2022-09-21T02:54:24.693Z,11.12
2022-09-21T02:57:26.512Z,10.96
2022-09-21T03:00:28.399Z,11.29
2022-09-21T03:03:30.248Z,11.29
2022-09-21T03:06:32.089Z,10.52
2022-09-21T03:09:33.977Z,11.12
2022-09-21T03:12:35.960Z,10.84
2022-09-21T03:15:38.318Z,10.68
2022-09-21T03:18:40.351Z,11.88
2022-09-21T03:21:44.642Z,11.58
2022-09-21T03:24:46.849Z,11.79
2022-09-21T03:27:48.683Z,12.04
2022-09-21T03:30:50.985Z,11.45
2022-09-21T03:33:52.950Z,10.92
2022-09-21T03:36:55.109Z,11.16
2022-09-21T03:39:56.913Z,11.10
2022-09-21T03:42:59.073Z,11.70
2022-09-21T03:46:01.275Z,11.72
2022-09-21T03:49:03.116Z,12.51
2022-09-21T03:52:04.940Z,12.24
2022-09-21T03:55:08.138Z,11.49
2022-09-21T03:58:10.034Z,11.52
2022-09-21T04:01:11.881Z,12.47
2022-09-21T04:04:13.701Z,12.52
2022-09-21T04:07:15.609Z,12.09
2022-09-21T04:10:18.539Z,12.46
2022-09-21T04:13:20.338Z,11.57
2022-09-21T04:16:22.838Z,11.80
2022-09-21T04:19:24.621Z,10.87
2022-09-21T04:22:26.438Z,11.09
2022-09-21T04:25:28.710Z,11.87
2022-09-21T04:28:32.392Z,12.22
2022-09-21T04:31:34.294Z,12.17
2022-09-21T04:34:37.389Z,11.79
2022-09-21T04:37:39.235Z,11.44
2022-09-21T04:40:41.168Z,11.45
2022-09-21T04:43:43.741Z,11.50
2022-09-21T04:46:45.686Z,11.54
2022-09-21T04:49:47.622Z,11.41
2022-09-21T04:52:49.518Z,11.55
2022-09-21T04:55:51.284Z,12.03
2022-09-21T04:58:53.128Z,11.43
2022-09-21T05:01:54.933Z,11.09
2022-09-21T05:04:56.761Z,11.18
2022-09-21T05:07:58.586Z,10.92
2022-09-21T05:11:00.373Z,11.43
2022-09-21T05:14:02.281Z,12.06
2022-09-21T05:17:04.096Z,11.34
2022-09-21T05:20:06.108Z,11.90
2022-09-21T05:23:08.048Z,11.30
2022-09-21T05:26:09.892Z,11.07
2022-09-21T05:29:11.762Z,11.62
2022-09-21T05:32:18.934Z,12.73
2022-09-21T05:35:33.087Z,12.03
2022-09-21T05:38:34.955Z,13.08
2022-09-21T05:41:36.986Z,12.79
2022-09-21T05:44:38.871Z,12.83
2022-09-21T05:47:43.726Z,13.11
2022-09-21T05:51:05.140Z,14.24
2022-09-21T05:54:09.945Z,13.40
2022-09-21T05:57:17.905Z,13.99
2022-09-21T06:00:20.520Z,14.00
2022-09-21T06:03:29.524Z,13.96
2022-09-21T06:06:33.933Z,13.94
2022-09-21T06:09:37.981Z,14.44
2022-09-21T06:12:43.209Z,15.22
2022-09-21T06:15:45.049Z,13.52
2022-09-21T06:18:47.097Z,14.15
2022-09-21T06:21:49.109Z,13.93
2022-09-21T06:24:51.069Z,14.29
2022-09-21T06:27:52.906Z,15.43
2022-09-21T06:30:55.286Z,14.45
2022-09-21T06:33:57.274Z,15.49
2022-09-21T06:36:59.071Z,16.03
2022-09-21T06:40:00.950Z,17.65
2022-09-21T06:43:03.468Z,17.42
2022-09-21T06:46:05.601Z,19.20
2022-09-21T06:49:07.729Z,19.72
2022-09-21T06:52:09.718Z,19.03
2022-09-21T06:55:11.536Z,19.53
2022-09-21T06:58:13.484Z,17.79
2022-09-21T07:01:15.733Z,17.87
2022-09-21T07:04:20.856Z,19.91
2022-09-21T07:07:25.427Z,19.71
2022-09-21T07:10:27.506Z,19.53
2022-09-21T07:13:29.505Z,20.21
2022-09-21T07:16:31.350Z,21.65
2022-09-21T07:19:33.300Z,20.35
2022-09-21T07:22:35.322Z,21.65
2022-09-21T07:25:37.568Z,19.66
2022-09-21T07:28:39.581Z,22.42
2022-09-21T07:31:43.301Z,21.99
2022-09-21T07:34:45.621Z,21.90
2022-09-21T07:37:47.452Z,22.96
2022-09-21T07:40:49.562Z,21.26
2022-09-21T07:43:51.482Z,23.88
2022-09-21T07:46:53.300Z,24.89
2022-09-21T07:49:55.575Z,24.02
2022-09-21T07:52:58.871Z,24.49
2022-09-21T07:56:04.565Z,21.48
2022-09-21T07:59:06.536Z,21.30
2022-09-21T08:02:08.492Z,20.38
2022-09-21T08:05:10.396Z,18.35
2022-09-21T08:08:12.314Z,18.86
2022-09-21T08:11:14.962Z,17.86
2022-09-21T08:14:26.134Z,16.85
2022-09-21T08:17:29.690Z,17.42
2022-09-21T08:20:31.651Z,16.08
2022-09-21T08:23:33.543Z,16.93
2022-09-21T08:26:35.580Z,16.53
2022-09-21T08:29:37.470Z,17.82
2022-09-21T08:32:51.034Z,16.69
2022-09-21T08:35:54.208Z,16.52
2022-09-21T08:38:57.031Z,16.68
2022-09-21T08:41:59.674Z,16.12
2022-09-21T08:45:02.583Z,16.58
2022-09-21T08:48:05.768Z,17.16
2022-09-21T08:51:08.894Z,19.58
2022-09-21T08:54:13.718Z,19.40
2022-09-21T08:57:15.887Z,18.23
2022-09-21T09:00:18.856Z,16.57
2022-09-21T09:03:27.108Z,18.05
2022-09-21T09:06:35.258Z,20.39
2022-09-21T09:09:46.024Z,19.77
2022-09-21T09:13:01.022Z,20.97
2022-09-21T09:16:09.012Z,23.11
2022-09-21T09:19:17.676Z,21.65
2022-09-21T09:22:21.074Z,22.86
2022-09-21T09:25:23.217Z,23.28
2022-09-21T09:28:27.361Z,23.04
2022-09-21T09:31:30.185Z,21.90
2022-09-21T09:34:35.684Z,22.75
2022-09-21T09:37:37.923Z,22.46
2022-09-21T09:40:48.849Z,20.32
2022-09-21T09:44:04.932Z,20.71
2022-09-21T09:47:25.645Z,23.13
2022-09-21T09:50:28.992Z,23.68
2022-09-21T09:53:31.827Z,22.00
2022-09-21T09:56:34.089Z,22.07
2022-09-21T09:59:43.678Z,25.25
2022-09-21T10:02:49.809Z,27.33
2022-09-21T10:05:51.965Z,23.89
2022-09-21T10:08:53.843Z,25.67
2022-09-21T10:12:00.736Z,25.34
2022-09-21T10:15:02.546Z,27.06
2022-09-21T10:18:06.518Z,26.58
2022-09-21T10:21:09.519Z,25.44
2022-09-21T10:24:25.461Z,26.33
2022-09-21T10:27:28.050Z,24.93
2022-09-21T10:30:29.824Z,24.65
2022-09-21T10:33:31.700Z,23.30
2022-09-21T10:36:35.006Z,23.02
2022-09-21T10:39:36.913Z,20.09
2022-09-21T10:42:41.920Z,18.88
2022-09-21T10:45:43.836Z,20.43
2022-09-21T10:48:46.046Z,20.22
2022-09-21T10:51:48.375Z,20.26
2022-09-21T10:54:52.343Z,20.23
2022-09-21T10:57:54.130Z,20.22
2022-09-21T11:00:57.268Z,20.47
2022-09-21T11:04:00.750Z,19.08
2022-09-21T11:07:05.415Z,20.26
2022-09-21T11:10:13.866Z,19.33
2022-09-21T11:13:30.203Z,18.72
2022-09-21T11:16:52.340Z,18.36
2022-09-21T11:20:03.483Z,18.40
2022-09-21T11:23:11.228Z,19.11
2022-09-21T11:26:13.045Z,19.35
2022-09-21T11:32:37.134Z,18.13
2022-09-21T11:35:58.743Z,18.63
2022-09-21T11:39:08.965Z,18.86
2022-09-21T11:42:24.685Z,19.04
2022-09-21T11:45:49.702Z,19.52
2022-09-21T11:48:55.174Z,19.95
2022-09-21T11:52:03.989Z,20.44
2022-09-21T11:55:09.772Z,20.75
2022-09-21T11:58:18.744Z,20.23
2022-09-21T12:01:31.370Z,19.16
2022-09-21T12:04:56.595Z,20.18
2022-09-21T12:08:18.674Z,19.85
2022-09-21T12:11:20.549Z,20.57
2022-09-21T12:14:25.482Z,18.68
2022-09-21T12:17:37.265Z,19.79
2022-09-21T12:21:08.638Z,20.06
2022-09-21T12:24:31.884Z,20.04
2022-09-21T12:27:35.055Z,20.29
2022-09-21T12:30:37.280Z,20.37
2022-09-21T12:33:45.434Z,21.00
2022-09-21T12:36:50.617Z,21.71
2022-09-21T12:39:58.857Z,21.61
2022-09-21T12:43:19.778Z,21.61
2022-09-21T12:46:22.587Z,19.29
2022-09-21T12:49:26.509Z,19.65
2022-09-21T12:52:28.337Z,17.99
2022-09-21T12:55:30.168Z,18.88
2022-09-21T12:58:37.770Z,19.61
2022-09-21T13:01:47.496Z,19.01
2022-09-21T13:05:08.281Z,21.77
2022-09-21T13:08:10.122Z,21.64
2022-09-21T13:11:12.166Z,21.60
2022-09-21T13:14:14.112Z,24.49
2022-09-21T13:17:19.722Z,26.71
2022-09-21T13:20:23.882Z,26.73
2022-09-21T13:23:26.966Z,26.84
2022-09-21T13:26:36.022Z,27.59
2022-09-21T13:29:39.995Z,25.29
2022-09-21T13:32:51.582Z,20.94
2022-09-21T13:36:02.182Z,18.95
2022-09-21T13:39:12.057Z,18.44
2022-09-21T13:42:32.760Z,18.89
2022-09-21T13:45:34.607Z,18.62
2022-09-21T13:48:39.770Z,18.38
2022-09-21T13:51:57.797Z,19.38
2022-09-21T13:55:00.428Z,19.90
2022-09-21T13:58:04.739Z,18.88
2022-09-21T14:01:09.901Z,18.25
2022-09-21T14:04:24.468Z,18.66
2022-09-21T14:07:29.185Z,19.32
2022-09-21T14:10:32.291Z,19.41
2022-09-21T14:13:42.054Z,19.16
2022-09-21T14:16:47.510Z,19.14
2022-09-21T14:19:56.040Z,18.74
2022-09-21T14:23:11.511Z,19.28
2022-09-21T14:26:20.864Z,19.39
2022-09-21T14:29:28.618Z,18.53
2022-09-21T14:32:35.478Z,18.50
2022-09-21T14:35:37.862Z,18.49
2022-09-21T14:38:53.908Z,18.29
2022-09-21T14:41:56.735Z,18.44
2022-09-21T14:45:02.177Z,17.87
2022-09-21T14:48:07.074Z,18.60
2022-09-21T14:51:11.995Z,18.69
2022-09-21T14:54:17.485Z,18.78
2022-09-21T14:57:19.415Z,18.41
2022-09-21T15:00:26.661Z,18.80
2022-09-21T15:03:42.823Z,18.38
2022-09-21T15:07:09.865Z,18.25
2022-09-21T15:10:49.710Z,18.35
2022-09-21T15:13:56.980Z,18.14
2022-09-21T15:16:58.796Z,18.01
2022-09-21T15:20:01.012Z,18.26
2022-09-21T15:23:04.403Z,18.19
2022-09-21T15:26:10.036Z,17.75
2022-09-21T15:29:17.244Z,17.63
2022-09-21T15:32:29.723Z,18.12
2022-09-21T15:35:32.578Z,18.05
2022-09-21T15:38:36.358Z,17.49
2022-09-21T15:41:39.781Z,17.82
2022-09-21T15:44:43.738Z,17.14
2022-09-21T15:47:45.614Z,17.64
2022-09-21T15:50:48.854Z,17.38
2022-09-21T15:53:55.863Z,17.38
2022-09-21T15:56:59.262Z,17.75
2022-09-21T16:00:01.753Z,16.97
2022-09-21T16:03:05.694Z,17.74
2022-09-21T16:06:27.122Z,18.09
2022-09-21T16:09:39.738Z,17.18
2022-09-21T16:12:42.203Z,17.02
2022-09-21T16:15:44.087Z,16.87
2022-09-21T16:18:49.980Z,17.29
2022-09-21T16:21:51.874Z,16.88
2022-09-21T16:24:55.379Z,16.64
2022-09-21T16:27:58.587Z,16.32
2022-09-21T16:31:00.496Z,16.47
2022-09-21T16:34:07.979Z,16.56
2022-09-21T16:37:24.541Z,16.73
2022-09-21T16:40:26.970Z,16.69
2022-09-21T16:43:28.942Z,16.55
2022-09-21T16:46:31.879Z,16.04
2022-09-21T16:49:35.607Z,16.01
2022-09-21T16:52:37.438Z,16.09
2022-09-21T16:55:41.282Z,16.25
2022-09-21T16:58:44.212Z,16.20
2022-09-21T17:01:50.853Z,16.68
2022-09-21T17:04:54.685Z,15.97
2022-09-21T17:07:57.367Z,15.85
2022-09-21T17:11:00.883Z,15.65
2022-09-21T17:14:05.894Z,16.15
2022-09-21T17:17:11.328Z,16.64
2022-09-21T17:20:18.295Z,15.48
2022-09-21T17:23:20.499Z,16.33
2022-09-21T17:26:22.485Z,15.64
2022-09-21T17:29:26.891Z,15.41
2022-09-21T17:32:29.257Z,16.18
2022-09-21T17:35:32.112Z,16.51
2022-09-21T17:38:35.432Z,15.46
2022-09-21T17:41:43.802Z,16.39
2022-09-21T17:45:15.128Z,16.00
2022-09-21T17:48:18.581Z,16.49
2022-09-21T17:51:40.751Z,15.59
2022-09-21T17:54:42.626Z,16.24
2022-09-21T17:57:47.265Z,16.18
2022-09-21T18:00:50.441Z,16.35
2022-09-21T18:03:52.377Z,15.41
2022-09-21T18:06:54.696Z,16.06
2022-09-21T18:09:56.697Z,16.55
2022-09-21T18:13:14.219Z,16.47
2022-09-21T18:16:35.439Z,15.58
2022-09-21T18:19:52.584Z,15.30
2022-09-21T18:22:57.560Z,15.82
2022-09-21T18:25:59.669Z,15.21
2022-09-21T18:29:12.575Z,15.67
2022-09-21T18:32:41.816Z,15.03
2022-09-21T18:36:00.751Z,15.85
2022-09-21T18:39:22.760Z,15.77
2022-09-21T18:42:28.001Z,15.68
2022-09-21T18:45:32.173Z,14.77
2022-09-21T18:48:57.351Z,14.76
2022-09-21T18:52:02.327Z,14.76
2022-09-21T18:55:08.069Z,15.69
2022-09-21T18:58:10.390Z,14.65
2022-09-21T19:01:12.902Z,14.34
2022-09-21T19:04:17.053Z,14.46
2022-09-21T19:07:36.425Z,14.80
2022-09-21T19:10:45.366Z,14.38
2022-09-21T19:14:13.639Z,14.27
2022-09-21T19:17:18.257Z,14.40
2022-09-21T19:20:33.812Z,15.03
2022-09-21T19:23:47.774Z,14.82
2022-09-21T19:26:50.034Z,14.34
2022-09-21T19:30:18.243Z,14.24
2022-09-21T19:33:48.359Z,14.18
2022-09-21T19:36:47.733Z,14.25
2022-09-21T19:39:49.651Z,13.76
2022-09-21T19:42:52.305Z,14.27
2022-09-21T19:46:12.824Z,14.38
2022-09-21T19:49:18.887Z,14.33
2022-09-21T19:52:25.107Z,13.99
2022-09-21T19:55:45.477Z,13.76
2022-09-21T19:59:06.205Z,14.22
2022-09-21T20:02:10.808Z,14.07
2022-09-21T20:05:23.490Z,14.14
2022-09-21T20:08:28.522Z,14.08
2022-09-21T20:11:39.333Z,14.63
2022-09-21T20:14:47.310Z,14.03
2022-09-21T20:17:50.305Z,14.18
2022-09-21T20:20:52.122Z,13.74
2022-09-21T20:23:55.361Z,13.35
2022-09-21T20:26:57.244Z,13.22
2022-09-21T20:29:59.070Z,14.22
2022-09-21T20:33:06.791Z,13.05
2022-09-21T20:36:09.181Z,13.73
2022-09-21T20:39:10.974Z,13.84
2022-09-21T20:42:30.985Z,14.35
2022-09-21T20:45:33.297Z,13.83
2022-09-21T20:48:37.054Z,14.05
2022-09-21T20:51:39.080Z,13.07
2022-09-21T20:54:43.382Z,13.11
2022-09-21T20:57:47.381Z,12.91
2022-09-21T21:00:49.816Z,13.14
2022-09-21T21:03:51.824Z,12.90
2022-09-21T21:06:53.667Z,13.07
2022-09-21T21:09:55.481Z,12.59
2022-09-21T21:12:57.695Z,12.81
2022-09-21T21:16:00.213Z,12.52
2022-09-21T21:19:02.032Z,12.80
2022-09-21T21:22:03.868Z,12.44
2022-09-21T21:25:05.817Z,12.73
2022-09-21T21:28:07.654Z,12.34
2022-09-21T21:31:09.460Z,12.31
2022-09-21T21:34:11.286Z,12.28
2022-09-21T21:37:13.541Z,12.98
2022-09-21T21:40:15.480Z,12.93
2022-09-21T21:43:17.438Z,13.16
2022-09-21T21:46:19.503Z,13.07
2022-09-21T21:49:21.347Z,12.78
2022-09-21T21:52:23.126Z,13.11
2022-09-21T21:55:24.924Z,13.20
2022-09-21T21:58:27.682Z,13.11
2022-09-21T22:01:29.910Z,13.08
2022-09-21T22:04:31.957Z,12.96
2022-09-21T22:07:33.883Z,13.62
2022-09-21T22:10:35.664Z,13.10
2022-09-21T22:13:38.350Z,12.92
2022-09-21T22:16:40.220Z,13.11
2022-09-21T22:19:42.920Z,13.18
2022-09-21T22:22:44.707Z,13.17
2022-09-21T22:25:46.698Z,12.65
2022-09-21T22:28:49.527Z,12.84
2022-09-21T22:31:51.631Z,13.01
2022-09-21T22:34:53.554Z,13.00
2022-09-21T22:37:56.221Z,13.26
2022-09-21T22:41:04.853Z,13.63
2022-09-21T22:44:06.921Z,14.16
2022-09-21T22:47:08.721Z,13.96
2022-09-21T22:50:10.542Z,13.93
2022-09-21T22:53:12.342Z,14.04
2022-09-21T22:56:14.878Z,12.95
2022-09-21T22:59:16.750Z,13.92
2022-09-21T23:02:18.581Z,13.61
2022-09-21T23:05:20.365Z,13.48
2022-09-21T23:08:22.192Z,12.64
2022-09-21T23:11:27.101Z,13.20
2022-09-21T23:14:28.951Z,12.87
2022-09-21T23:17:31.246Z,12.59
2022-09-21T23:20:33.419Z,13.02
2022-09-21T23:23:35.340Z,13.56
2022-09-21T23:26:37.183Z,14.17
2022-09-21T23:29:39.005Z,13.74
2022-09-21T23:32:40.844Z,14.14
2022-09-21T23:35:42.635Z,13.80
2022-09-21T23:38:44.522Z,13.39
2022-09-21T23:41:46.339Z,13.18
2022-09-21T23:44:48.160Z,12.55
2022-09-21T23:47:49.942Z,12.45
2022-09-21T23:50:51.764Z,12.39
2022-09-21T23:53:53.656Z,12.22
2022-09-21T23:56:55.471Z,12.22
2022-09-21T23:59:57.277Z,12.54
